createdAt,value
2023-02-24T00:00:33.864Z,97.20
2023-02-24T00:03:11.165Z,96.90
2023-02-24T00:05:44.503Z,96.80
2023-02-24T00:08:12.505Z,96.70
2023-02-24T00:10:40.548Z,96.80
2023-02-24T00:13:12.096Z,96.90
2023-02-24T00:15:40.215Z,96.60
2023-02-24T00:18:08.459Z,96.60
2023-02-24T00:20:37.316Z,96.80
2023-02-24T00:23:05.418Z,96.70
2023-02-24T00:25:33.369Z,96.80
2023-02-24T00:28:01.766Z,96.70
2023-02-24T00:30:33.050Z,96.60
2023-02-24T00:33:02.845Z,96.50
2023-02-24T00:35:30.912Z,96.30
2023-02-24T00:37:59.456Z,96.20
2023-02-24T00:40:30.398Z,96.20
2023-02-24T00:42:58.485Z,96.00
2023-02-24T00:45:30.450Z,96.10
2023-02-24T00:47:59.800Z,96.10
2023-02-24T00:50:27.862Z,96.00
2023-02-24T00:52:55.839Z,95.90
2023-02-24T00:55:24.091Z,95.80
2023-02-24T00:57:52.084Z,95.90
2023-02-24T01:00:21.423Z,95.80
2023-02-24T01:02:49.498Z,95.70
2023-02-24T01:05:19.700Z,95.70
2023-02-24T01:07:47.684Z,95.80
2023-02-24T01:10:20.792Z,95.50
2023-02-24T01:12:50.732Z,95.50
2023-02-24T01:15:22.248Z,95.30
2023-02-24T01:17:50.495Z,95.20
2023-02-24T01:20:20.031Z,95.40
2023-02-24T01:22:50.170Z,95.20
2023-02-24T01:25:20.338Z,95.50
2023-02-24T01:27:48.558Z,95.40
2023-02-24T01:30:18.156Z,95.20
2023-02-24T01:32:48.003Z,95.20
2023-02-24T01:35:16.751Z,95.10
2023-02-24T01:37:46.328Z,95.20
2023-02-24T01:40:20.942Z,95.20
2023-02-24T01:42:49.493Z,95.10
2023-02-24T01:45:24.856Z,95.20
2023-02-24T01:47:54.158Z,95.30
2023-02-24T01:50:26.112Z,95.40
2023-02-24T01:52:58.934Z,95.50
2023-02-24T01:55:32.181Z,95.40
2023-02-24T01:58:03.025Z,95.30
2023-02-24T02:00:37.725Z,95.20
2023-02-24T02:03:14.212Z,95.30
2023-02-24T02:05:45.290Z,95.30
2023-02-24T02:08:15.531Z,95.40
2023-02-24T02:10:45.191Z,95.40
2023-02-24T02:13:15.996Z,95.50
2023-02-24T02:15:58.153Z,95.50
2023-02-24T02:18:35.845Z,95.70
2023-02-24T02:21:49.410Z,95.80
2023-02-24T02:24:43.611Z,96.10
2023-02-24T02:27:47.865Z,95.50
2023-02-24T02:30:29.568Z,95.60
2023-02-24T02:33:24.643Z,95.80
2023-02-24T02:36:00.691Z,95.90
2023-02-24T02:38:39.098Z,95.70
2023-02-24T02:41:14.029Z,95.50
2023-02-24T02:43:49.617Z,95.80
2023-02-24T02:46:34.656Z,95.70
2023-02-24T02:49:09.240Z,95.90
2023-02-24T02:51:42.817Z,96.10
2023-02-24T02:54:17.827Z,96.20
2023-02-24T02:56:52.823Z,96.20
2023-02-24T02:59:25.135Z,96.10
2023-02-24T03:02:01.247Z,96.10
2023-02-24T03:04:31.054Z,95.90
2023-02-24T03:07:02.961Z,96.20
2023-02-24T03:09:36.194Z,96.50
2023-02-24T03:12:08.967Z,97.20
2023-02-24T03:14:40.637Z,97.60
2023-02-24T03:17:13.726Z,97.90
2023-02-24T03:19:43.851Z,98.00
2023-02-24T03:22:17.782Z,98.10
2023-02-24T03:24:46.735Z,98.30
2023-02-24T03:27:21.091Z,98.50
2023-02-24T03:29:54.185Z,99.10
2023-02-24T03:32:33.515Z,99.60
2023-02-24T03:35:05.552Z,99.90
2023-02-24T03:37:36.894Z,99.90
2023-02-24T03:40:11.799Z,99.90
2023-02-24T03:42:43.288Z,99.90
2023-02-24T03:45:12.049Z,99.90
2023-02-24T03:47:41.886Z,99.90
2023-02-24T03:50:13.677Z,99.90
2023-02-24T03:52:49.141Z,99.90
2023-02-24T03:55:34.265Z,99.90
2023-02-24T03:58:14.992Z,99.90
2023-02-24T04:00:49.698Z,99.90
2023-02-24T04:03:27.325Z,99.90
2023-02-24T04:06:08.594Z,99.90
2023-02-24T04:08:42.945Z,99.90
2023-02-24T04:11:15.588Z,99.90
2023-02-24T04:13:47.213Z,99.90
2023-02-24T04:16:27.993Z,99.90
2023-02-24T04:18:59.982Z,99.90
2023-02-24T04:21:31.319Z,99.90
2023-02-24T04:24:06.250Z,99.90
2023-02-24T04:26:36.658Z,99.90
2023-02-24T04:29:04.822Z,99.90
2023-02-24T04:31:34.588Z,99.90
2023-02-24T04:34:02.672Z,99.90
2023-02-24T04:36:34.156Z,99.90
2023-02-24T04:39:05.014Z,99.90
2023-02-24T04:41:33.032Z,99.90
2023-02-24T04:44:01.762Z,99.90
2023-02-24T04:46:32.370Z,99.90
2023-02-24T04:49:02.281Z,99.90
2023-02-24T04:51:32.448Z,99.90
2023-02-24T04:54:00.440Z,99.90
2023-02-24T04:56:29.779Z,99.90
2023-02-24T04:58:57.948Z,99.90
2023-02-24T05:01:25.924Z,99.90
2023-02-24T05:03:53.952Z,99.90
2023-02-24T05:06:21.997Z,99.90
2023-02-24T05:08:52.410Z,99.90
2023-02-24T05:11:21.059Z,99.90
2023-02-24T05:13:51.399Z,99.90
2023-02-24T05:16:20.378Z,99.90
2023-02-24T05:18:48.571Z,99.90
2023-02-24T05:21:35.666Z,99.90
2023-02-24T05:24:06.785Z,99.90
2023-02-24T05:26:36.913Z,99.90
2023-02-24T05:29:07.302Z,99.90
2023-02-24T05:31:37.045Z,99.90
2023-02-24T05:34:07.650Z,99.90
2023-02-24T05:36:40.531Z,99.90
2023-02-24T05:39:12.395Z,99.90
2023-02-24T05:41:42.447Z,99.90
2023-02-24T05:44:15.838Z,99.90
2023-02-24T05:46:45.539Z,99.90
2023-02-24T05:49:16.185Z,99.90
2023-02-24T05:51:54.577Z,99.90
2023-02-24T05:54:25.875Z,99.90
2023-02-24T05:56:53.882Z,99.90
2023-02-24T05:59:23.536Z,99.90
2023-02-24T06:01:53.694Z,99.90
2023-02-24T06:04:39.457Z,99.90
2023-02-24T06:07:13.648Z,99.90
2023-02-24T06:09:43.030Z,99.90
2023-02-24T06:12:11.410Z,99.90
2023-02-24T06:14:40.843Z,99.90
2023-02-24T06:17:08.990Z,99.90
2023-02-24T06:19:37.299Z,99.90
2023-02-24T06:22:10.847Z,99.90
2023-02-24T06:24:39.414Z,99.90
2023-02-24T06:27:10.654Z,99.90
2023-02-24T06:29:40.808Z,99.90
2023-02-24T06:32:09.619Z,99.90
2023-02-24T06:34:38.853Z,99.90
2023-02-24T06:37:08.190Z,99.90
2023-02-24T06:39:36.937Z,99.90
2023-02-24T06:42:08.848Z,99.90
2023-02-24T06:44:39.065Z,99.90
2023-02-24T06:47:11.569Z,99.90
2023-02-24T06:49:39.741Z,99.90
2023-02-24T06:52:08.705Z,99.90
2023-02-24T06:54:36.784Z,99.90
2023-02-24T06:57:05.255Z,99.90
2023-02-24T06:59:34.308Z,99.90
2023-02-24T07:02:03.752Z,99.90
2023-02-24T07:04:43.681Z,99.90
2023-02-24T07:07:14.314Z,99.90
2023-02-24T07:09:45.516Z,99.90
2023-02-24T07:12:13.668Z,99.90
2023-02-24T07:14:41.741Z,99.90
2023-02-24T07:17:10.364Z,99.90
2023-02-24T07:19:40.143Z,99.90
2023-02-24T07:22:09.620Z,99.90
2023-02-24T07:24:40.663Z,99.90
2023-02-24T07:27:12.627Z,99.90
2023-02-24T07:29:41.070Z,99.90
2023-02-24T07:32:10.093Z,99.90
2023-02-24T07:34:40.564Z,99.90
2023-02-24T07:37:09.352Z,99.90
2023-02-24T07:39:39.260Z,99.90
2023-02-24T07:42:12.360Z,99.90
2023-02-24T07:44:40.591Z,99.90
2023-02-24T07:47:08.924Z,99.90
2023-02-24T07:49:40.989Z,99.90
2023-02-24T07:52:11.639Z,99.90
2023-02-24T07:54:39.775Z,99.90
2023-02-24T07:57:14.487Z,99.90
2023-02-24T07:59:47.231Z,99.90
2023-02-24T08:02:16.478Z,99.90
2023-02-24T08:04:50.429Z,99.90
2023-02-24T08:07:24.286Z,99.90
2023-02-24T08:10:14.255Z,99.90
2023-02-24T08:12:47.599Z,99.90
2023-02-24T08:15:24.106Z,99.90
2023-02-24T08:17:55.483Z,99.90
2023-02-24T08:20:26.939Z,99.90
2023-02-24T08:22:56.209Z,99.90
2023-02-24T08:25:35.348Z,99.90
2023-02-24T08:28:09.024Z,99.90
2023-02-24T08:30:39.940Z,99.90
2023-02-24T08:33:10.210Z,99.90
2023-02-24T08:35:45.271Z,99.90
2023-02-24T08:38:17.318Z,99.90
2023-02-24T08:40:54.948Z,99.90
2023-02-24T08:43:33.154Z,99.90
2023-02-24T08:46:05.331Z,99.90
2023-02-24T08:48:42.359Z,99.90
2023-02-24T08:51:15.846Z,99.90
2023-02-24T08:53:44.436Z,99.90
2023-02-24T08:56:14.353Z,99.90
2023-02-24T08:58:47.769Z,99.90
2023-02-24T09:01:20.524Z,99.90
2023-02-24T09:03:50.452Z,99.90
2023-02-24T09:06:25.401Z,99.90
2023-02-24T09:09:17.164Z,99.90
2023-02-24T09:11:46.624Z,99.90
2023-02-24T09:14:26.505Z,99.90
2023-02-24T09:17:07.106Z,99.90
2023-02-24T09:20:02.121Z,99.90
2023-02-24T09:22:32.171Z,99.90
2023-02-24T09:25:23.948Z,99.90
2023-02-24T09:27:55.736Z,99.90
2023-02-24T09:30:39.536Z,99.90
2023-02-24T09:33:18.798Z,99.90
2023-02-24T09:35:48.990Z,99.90
2023-02-24T09:38:20.602Z,99.90
2023-02-24T09:40:50.313Z,99.90
2023-02-24T09:43:21.725Z,99.90
2023-02-24T09:45:58.291Z,99.90
2023-02-24T09:48:43.598Z,99.90
2023-02-24T09:51:21.872Z,99.90
2023-02-24T09:53:56.619Z,99.90
2023-02-24T09:56:37.191Z,99.90
2023-02-24T09:59:13.555Z,99.90
2023-02-24T10:01:54.729Z,99.90
2023-02-24T10:04:36.264Z,99.90
2023-02-24T10:07:08.540Z,99.90
2023-02-24T10:09:43.553Z,99.90
2023-02-24T10:12:24.149Z,99.90
2023-02-24T10:15:17.285Z,99.90
2023-02-24T10:17:49.990Z,99.90
2023-02-24T10:20:31.243Z,99.90
2023-02-24T10:23:04.443Z,99.90
2023-02-24T10:25:54.161Z,99.90
2023-02-24T10:28:35.791Z,99.90
2023-02-24T10:31:25.424Z,99.90
2023-02-24T10:33:58.245Z,99.90
2023-02-24T10:36:35.364Z,99.90
2023-02-24T10:39:10.729Z,99.90
2023-02-24T10:41:49.239Z,99.90
2023-02-24T10:44:24.979Z,99.90
2023-02-24T10:47:12.290Z,99.90
2023-02-24T10:49:56.930Z,99.90
2023-02-24T10:52:37.328Z,99.90
2023-02-24T10:55:27.817Z,99.90
2023-02-24T10:58:06.975Z,99.90
2023-02-24T11:01:00.391Z,99.90
2023-02-24T11:03:42.042Z,99.90
2023-02-24T11:06:30.868Z,99.90
2023-02-24T11:09:19.162Z,99.90
2023-02-24T11:12:17.778Z,99.90
2023-02-24T11:15:10.522Z,99.90
2023-02-24T11:17:46.883Z,99.90
2023-02-24T11:20:24.903Z,99.90
2023-02-24T11:22:55.946Z,99.90
2023-02-24T11:25:26.776Z,99.90
2023-02-24T11:27:57.268Z,99.90
2023-02-24T11:30:36.789Z,99.90
2023-02-24T11:33:22.220Z,99.90
2023-02-24T11:35:59.230Z,99.90
2023-02-24T11:38:38.501Z,99.90
2023-02-24T11:41:15.192Z,99.90
2023-02-24T11:43:47.039Z,99.90
2023-02-24T11:46:26.866Z,99.90
2023-02-24T11:48:58.810Z,99.90
2023-02-24T11:51:31.381Z,99.90
2023-02-24T11:54:03.113Z,99.90
2023-02-24T11:56:35.142Z,99.90
2023-02-24T11:59:08.750Z,99.90
2023-02-24T12:01:44.400Z,99.90
2023-02-24T12:04:20.309Z,99.90
2023-02-24T12:06:57.060Z,99.90
2023-02-24T12:09:30.926Z,99.70
2023-02-24T12:12:03.717Z,99.70
2023-02-24T12:14:39.292Z,99.90
2023-02-24T12:17:20.259Z,99.90
2023-02-24T12:19:59.761Z,99.90
2023-02-24T12:22:34.762Z,99.90
2023-02-24T12:25:02.985Z,99.90
2023-02-24T12:27:48.319Z,99.90
2023-02-24T12:30:38.841Z,99.90
2023-02-24T12:33:19.591Z,99.90
2023-02-24T12:35:56.389Z,99.90
2023-02-24T12:38:41.276Z,99.90
2023-02-24T12:41:20.547Z,99.90
2023-02-24T12:43:55.331Z,99.90
2023-02-24T12:46:26.880Z,99.90
2023-02-24T12:49:20.078Z,99.90
2023-02-24T12:52:03.755Z,99.90
2023-02-24T12:54:40.451Z,99.90
2023-02-24T12:57:12.898Z,99.90
2023-02-24T12:59:42.754Z,99.90
2023-02-24T13:02:19.668Z,99.90
2023-02-24T13:04:59.301Z,99.90
2023-02-24T13:07:47.755Z,99.90
2023-02-24T13:10:29.563Z,99.90
2023-02-24T13:13:07.593Z,99.90
2023-02-24T13:15:35.723Z,99.90
2023-02-24T13:18:03.728Z,99.90
2023-02-24T13:20:36.506Z,99.90
2023-02-24T13:23:18.247Z,99.90
2023-02-24T13:25:52.267Z,99.90
2023-02-24T13:28:26.096Z,99.90
2023-02-24T13:31:00.753Z,99.90
2023-02-24T13:33:31.319Z,99.90
2023-02-24T13:36:16.912Z,99.90
2023-02-24T13:38:46.599Z,99.90
2023-02-24T13:41:36.948Z,99.90
2023-02-24T13:44:24.313Z,99.90
2023-02-24T13:47:12.835Z,99.90
2023-02-24T13:49:50.582Z,99.90
2023-02-24T13:52:32.722Z,99.90
2023-02-24T13:55:32.559Z,99.90
2023-02-24T13:58:19.018Z,99.90
2023-02-24T14:01:03.836Z,99.90
2023-02-24T14:03:32.630Z,99.90
2023-02-24T14:06:01.865Z,99.90
2023-02-24T14:08:42.629Z,99.90
2023-02-24T14:11:15.394Z,99.90
2023-02-24T14:13:47.340Z,99.90
2023-02-24T14:16:21.510Z,99.90
2023-02-24T14:18:57.639Z,99.90
2023-02-24T14:21:28.410Z,99.90
2023-02-24T14:23:59.995Z,99.90
2023-02-24T14:26:29.454Z,99.90
2023-02-24T14:29:00.511Z,99.90
2023-02-24T14:31:30.202Z,99.90
2023-02-24T14:34:00.626Z,99.90
2023-02-24T14:36:32.289Z,99.90
2023-02-24T14:39:10.178Z,99.90
2023-02-24T14:41:38.392Z,99.90
2023-02-24T14:44:18.926Z,99.90
2023-02-24T14:46:48.740Z,99.90
2023-02-24T14:49:21.055Z,99.90
2023-02-24T14:51:54.920Z,99.90
2023-02-24T14:54:33.929Z,99.90
2023-02-24T14:57:02.520Z,99.90
2023-02-24T14:59:34.271Z,99.90
2023-02-24T15:02:05.265Z,99.90
2023-02-24T15:04:36.852Z,99.90
2023-02-24T15:07:08.980Z,99.90
2023-02-24T15:09:43.474Z,99.90
2023-02-24T15:12:23.031Z,99.90
2023-02-24T15:14:54.341Z,99.90
2023-02-24T15:17:23.926Z,99.90
2023-02-24T15:19:55.450Z,99.90
2023-02-24T15:22:26.370Z,99.90
2023-02-24T15:25:08.249Z,99.90
2023-02-24T15:27:36.311Z,99.90
2023-02-24T15:30:10.221Z,99.90
2023-02-24T15:32:39.334Z,99.90
2023-02-24T15:35:08.512Z,99.90
2023-02-24T15:37:42.683Z,99.90
2023-02-24T15:40:21.701Z,99.90
2023-02-24T15:42:53.285Z,99.90
2023-02-24T15:45:32.881Z,99.90
2023-02-24T15:48:02.850Z,99.90
2023-02-24T15:50:32.673Z,99.90
2023-02-24T15:53:04.720Z,99.90
2023-02-24T15:55:34.073Z,99.90
2023-02-24T15:58:04.312Z,99.90
2023-02-24T16:00:32.429Z,99.90
2023-02-24T16:03:00.481Z,99.90
2023-02-24T16:05:28.506Z,99.90
2023-02-24T16:07:56.486Z,99.90
2023-02-24T16:10:26.675Z,99.90
2023-02-24T16:12:57.845Z,99.90
2023-02-24T16:15:29.402Z,99.90
2023-02-24T16:17:58.480Z,99.90
2023-02-24T16:20:31.284Z,99.90
2023-02-24T16:23:01.010Z,99.90
2023-02-24T16:25:30.483Z,99.90
2023-02-24T16:27:59.933Z,99.90
2023-02-24T16:30:30.830Z,99.90
2023-02-24T16:32:59.938Z,99.90
2023-02-24T16:35:28.964Z,99.90
2023-02-24T16:37:56.983Z,99.90
2023-02-24T16:40:27.951Z,99.90
2023-02-24T16:42:55.973Z,99.90
2023-02-24T16:45:28.912Z,99.90
2023-02-24T16:48:01.276Z,99.90
2023-02-24T16:50:33.871Z,99.90
2023-02-24T16:53:02.143Z,99.90
2023-02-24T16:55:30.108Z,99.90
2023-02-24T16:57:58.234Z,99.90
2023-02-24T17:00:27.953Z,99.90
2023-02-24T17:02:56.086Z,99.90
2023-02-24T17:05:25.920Z,99.90
2023-02-24T17:07:55.420Z,99.90
2023-02-24T17:10:25.315Z,99.90
2023-02-24T17:12:53.491Z,99.90
2023-02-24T17:15:23.645Z,99.90
2023-02-24T17:17:53.012Z,99.90
2023-02-24T17:20:21.817Z,99.90
2023-02-24T17:22:49.819Z,99.90
2023-02-24T17:25:20.016Z,99.90
2023-02-24T17:27:48.106Z,99.90
2023-02-24T17:30:18.202Z,99.90
2023-02-24T17:32:46.403Z,99.90
2023-02-24T17:35:15.815Z,99.90
2023-02-24T17:37:43.787Z,99.90
2023-02-24T17:40:13.618Z,99.90
2023-02-24T17:42:41.965Z,99.90
2023-02-24T17:45:11.758Z,99.90
2023-02-24T17:47:40.167Z,99.90
2023-02-24T17:50:14.490Z,99.90
2023-02-24T17:52:43.934Z,99.90
2023-02-24T17:55:12.426Z,99.90
2023-02-24T17:57:40.719Z,99.90
2023-02-24T18:00:12.594Z,99.90
2023-02-24T18:02:41.057Z,99.90
2023-02-24T18:05:10.101Z,99.90
2023-02-24T18:07:38.487Z,99.90
2023-02-24T18:10:09.136Z,99.90
2023-02-24T18:12:37.538Z,99.90
2023-02-24T18:15:09.165Z,99.90
2023-02-24T18:17:38.037Z,99.90
2023-02-24T18:20:07.216Z,99.90
2023-02-24T18:22:35.484Z,99.90
2023-02-24T18:25:03.469Z,99.90
2023-02-24T18:27:32.804Z,99.90
2023-02-24T18:30:00.775Z,99.90
2023-02-24T18:32:28.877Z,99.90
2023-02-24T18:34:57.010Z,99.90
2023-02-24T18:37:25.003Z,99.90
2023-02-24T18:39:53.387Z,99.90
2023-02-24T18:42:21.382Z,99.90
2023-02-24T18:44:50.797Z,99.90
2023-02-24T18:47:18.748Z,99.90
2023-02-24T18:49:46.777Z,99.90
2023-02-24T18:52:14.758Z,99.90
2023-02-24T18:54:42.697Z,99.90
2023-02-24T18:57:10.671Z,99.90
2023-02-24T18:59:38.620Z,99.90
2023-02-24T19:02:08.033Z,99.90
2023-02-24T19:04:36.139Z,99.90
2023-02-24T19:07:04.279Z,99.90
2023-02-24T19:09:32.312Z,99.90
2023-02-24T19:12:01.387Z,99.90
2023-02-24T19:14:29.452Z,99.90
2023-02-24T19:16:57.407Z,99.90
2023-02-24T19:19:26.830Z,99.90
2023-02-24T19:21:54.822Z,99.90
2023-02-24T19:24:22.802Z,99.90
2023-02-24T19:26:52.915Z,99.90
2023-02-24T19:29:22.118Z,99.90
2023-02-24T19:31:54.055Z,99.90
2023-02-24T19:34:22.721Z,99.90
2023-02-24T19:36:52.047Z,99.90
2023-02-24T19:39:20.102Z,99.90
2023-02-24T19:41:49.687Z,99.90
2023-02-24T19:44:18.055Z,99.90
2023-02-24T19:46:46.067Z,99.90
2023-02-24T19:49:14.054Z,99.90
2023-02-24T19:51:42.953Z,99.90
2023-02-24T19:54:14.137Z,99.90
2023-02-24T19:56:42.101Z,99.90
2023-02-24T19:59:11.705Z,99.90
2023-02-24T20:01:39.779Z,99.90
2023-02-24T20:04:08.323Z,99.90
2023-02-24T20:06:38.832Z,99.90
2023-02-24T20:09:08.142Z,99.90
2023-02-24T20:11:38.479Z,99.90
2023-02-24T20:14:07.549Z,99.90
2023-02-24T20:16:37.373Z,99.90
2023-02-24T20:19:07.028Z,99.90
2023-02-24T20:21:35.033Z,99.90
2023-02-24T20:24:05.161Z,99.90
2023-02-24T20:26:33.652Z,99.90
2023-02-24T20:29:03.427Z,99.90
2023-02-24T20:31:31.940Z,99.90
2023-02-24T20:34:00.128Z,99.90
2023-02-24T20:36:30.165Z,99.90
2023-02-24T20:39:00.109Z,99.90
2023-02-24T20:41:28.801Z,99.90
2023-02-24T20:43:57.068Z,99.90
2023-02-24T20:46:28.849Z,99.90
2023-02-24T20:48:58.522Z,99.90
2023-02-24T20:51:27.229Z,99.90
2023-02-24T20:53:58.324Z,99.90
2023-02-24T20:56:27.892Z,99.90
2023-02-24T20:59:02.208Z,99.90
2023-02-24T21:01:33.104Z,99.90
2023-02-24T21:04:02.094Z,99.90
2023-02-24T21:06:30.587Z,99.90
2023-02-24T21:08:59.414Z,99.90
2023-02-24T21:11:29.735Z,99.90
2023-02-24T21:13:58.369Z,99.90
2023-02-24T21:16:27.777Z,99.90
2023-02-24T21:18:58.850Z,99.90
2023-02-24T21:21:26.986Z,99.90
2023-02-24T21:23:55.226Z,99.90
2023-02-24T21:26:26.744Z,99.90
2023-02-24T21:28:57.596Z,99.90
2023-02-24T21:31:26.840Z,99.90
2023-02-24T21:33:56.958Z,99.90
2023-02-24T21:36:27.710Z,99.90
2023-02-24T21:38:56.517Z,99.90
2023-02-24T21:41:24.841Z,99.90
2023-02-24T21:43:55.518Z,99.90
2023-02-24T21:46:28.126Z,99.90
2023-02-24T21:48:58.856Z,99.90
2023-02-24T21:51:28.039Z,99.90
2023-02-24T21:53:57.022Z,99.90
2023-02-24T21:56:27.314Z,99.90
2023-02-24T21:58:58.415Z,99.90
2023-02-24T22:01:28.502Z,99.90
2023-02-24T22:03:59.248Z,99.90
2023-02-24T22:06:31.341Z,99.90
2023-02-24T22:08:59.979Z,99.90
2023-02-24T22:11:27.991Z,99.90
2023-02-24T22:13:55.984Z,99.90
2023-02-24T22:16:26.323Z,99.90
2023-02-24T22:18:55.616Z,99.90
2023-02-24T22:21:27.345Z,99.90
2023-02-24T22:23:57.861Z,99.90
2023-02-24T22:26:26.743Z,99.90
2023-02-24T22:28:55.593Z,99.90
2023-02-24T22:31:25.259Z,99.90
2023-02-24T22:33:53.319Z,99.90
2023-02-24T22:36:25.409Z,99.90
2023-02-24T22:38:54.383Z,99.90
2023-02-24T22:41:24.569Z,99.90
2023-02-24T22:43:53.944Z,99.90
2023-02-24T22:46:24.535Z,99.90
2023-02-24T22:48:52.746Z,99.90
2023-02-24T22:51:21.435Z,99.90
2023-02-24T22:53:51.556Z,99.90
2023-02-24T22:56:22.266Z,99.90
2023-02-24T22:58:50.894Z,99.90
2023-02-24T23:01:21.929Z,99.90
2023-02-24T23:03:50.781Z,99.90
2023-02-24T23:06:20.650Z,99.90
2023-02-24T23:08:51.943Z,99.90
2023-02-24T23:11:22.616Z,99.90
2023-02-24T23:13:52.211Z,99.90
2023-02-24T23:16:22.859Z,99.90
2023-02-24T23:18:53.854Z,99.90
2023-02-24T23:21:25.242Z,99.90
2023-02-24T23:23:57.073Z,99.90
2023-02-24T23:26:30.189Z,99.90
2023-02-24T23:28:58.247Z,99.90
2023-02-24T23:31:27.121Z,99.90
2023-02-24T23:33:55.944Z,99.90
2023-02-24T23:36:25.136Z,99.90
2023-02-24T23:38:54.776Z,99.90
2023-02-24T23:41:22.773Z,99.90
2023-02-24T23:43:50.764Z,99.90
2023-02-24T23:46:18.804Z,99.90
2023-02-24T23:48:46.832Z,99.90
2023-02-24T23:51:17.289Z,99.90
2023-02-24T23:53:47.077Z,99.90
2023-02-24T23:56:18.944Z,99.90
2023-02-24T23:58:50.454Z,99.90
